x

Buoy E01 - Central Maine Shelf (44032) Weather Station

10:04am - Wed 7th Dec 2016 All times are EST. -5 hours from GMT.

  • Wind
    7mph, 11mph gusts
  • Sea Temp 50°f
  • 空気 Temp 38°f
  • Sea Pressure 1015.8mb
  • Buoy E01 - Central Maine Shelf
  • Buoy E01 - Central Maine Shelf

More Historic Weather Station data

Upgrade to MSW Pro to gain access to the past 30 days of data for over 8000 Wavebouys and Weather Stations around the globe.

Join Pro

Comparision Forecast

View Surf forecast
   
Wed 12/07 10:04am  -   -  7 11 mph 1015.8mb 50f 38f
9:04am 1.6ft 3s 9 13 mph 1015.7mb 50f 38f
8:04am  -   -  11 16 mph 1015.2mb 50f 38f
7:04am 3.5ft 11s 13 16 mph 1014.6mb 50f 38f
6:04am 1.6ft 3s 11 13 mph 1014.8mb - 38f
5:04am 1.6ft 3s 16 18 mph 1013.9mb 50f 37f
4:04am 2.5ft 11s 13 16 mph 1015mb 50f 37f
3:04am 2ft 11s 11 13 mph 1015.7mb 50f 36f
2:04am 2.5ft 11s 7 13 mph 1016.1mb - 35f
1:04am 1.3ft 4s 11 16 mph 1016mb 50f 35f
12:04am 1.3ft 3s 9 11 mph 1016.5mb 50f 35f
Tue 12/06 11:04pm 1.3ft 3s 9 11 mph 1017.2mb 50f 35f
10:04pm 1.3ft 3s 11 16 mph 1017.4mb - 35f
7:04pm 2ft 11s 9 11 mph 1017.4mb 50f 35f
6:04pm 1.3ft 2s 9 13 mph 1017.6mb 50f 35f
5:04pm 1.3ft 2s 9 13 mph 1017.5mb 50f 35f
4:04pm 1.3ft 5s 9 13 mph 1017.9mb 50f 35f
3:04pm 1.3ft 3s 9 13 mph 1018mb 50f 36f
2:04pm 1.6ft 3s 11 16 mph 1017.9mb 50f 35f
1:04pm 2ft 3s 13 16 mph 1018mb 50f 34f
12:04pm 2.5ft 3s 13 18 mph 1018.7mb 50f 34f
11:04am 2.5ft 3s 16 20 mph 1018.9mb 50f 34f
10:04am 2.5ft 3s 18 22 mph 1019mb 50f 34f
9:04am 2.5ft 3s 18 22 mph 1019.3mb 50f 34f
8:04am 2.5ft 3s 16 18 mph 1019mb - 34f
7:04am 2.5ft 3s 18 22 mph 1018.4mb 50f 35f
6:04am 2ft 3s 16 22 mph 1018.2mb 50f 35f
5:04am 2ft 3s 16 18 mph 1017.2mb - 35f
4:04am 2.5ft 3s 16 18 mph 1016.6mb 50f 35f
3:04am 2.5ft 3s 16 20 mph 1015.9mb - 34f
2:04am 2.5ft 3s 20 25 mph 1015mb - 34f
1:04am 3ft 4s 20 22 mph 1014.1mb - 34f
12:04am 3ft 4s 18 22 mph 1013.1mb - 34f
Mon 12/05 11:04pm 3.5ft 5s 18 22 mph 1013.1mb - 33f
10:04pm 3ft 5s 18 22 mph 1012.3mb 50f 35f
9:04pm 3ft 5s 18 22 mph 1011.9mb 50f 36f
8:04pm 3.5ft 5s 18 22 mph 1011.9mb 50f 37f
7:04pm 3.5ft 5s 18 22 mph 1011.6mb 50f 39f
6:04pm 3.5ft 4s 16 18 mph 1011.5mb 50f 41f
5:04pm 3.5ft 5s 16 18 mph 1011.9mb 50f 42f
4:04pm 3.5ft 4s 18 20 mph 1012.3mb 50f 41f
3:04pm 2.5ft 4s 18 20 mph 1012.2mb - 41f
2:04pm 2ft 3s 18 20 mph 1012.6mb 50f 39f
1:04pm 1.6ft 2s 16 18 mph 1013.3mb - 39f
12:04pm 1.6ft 8s 13 16 mph 1014.9mb 50f 38f
11:04am 1.6ft 8s 9 11 mph 1016.3mb 50f 38f
10:04am 1.6ft 11s 7 9 mph 1017.3mb - 37f
9:04am 1.3ft 8s 4 7 mph 1018.4mb - 35f
8:04am 1.3ft 11s 4
mph
1019.3mb 50f 34f
7:04am 1ft 5s 4 9 mph 1019.2mb - 33f
6:04am 1ft 4s 4 7 mph 1019.8mb - 32f
5:04am 1ft 3s 4 9 mph 1019.7mb - 32f
4:04am 1.3ft 3s 2 7 mph 1019.9mb 50f 31f
3:04am 1.6ft 3s 7 13 mph 1019.6mb - 31f
2:04am 1.6ft 3s 7 9 mph 1020.9mb - 30f
1:04am 2ft 3s 11 16 mph 1020.7mb - 31f